LFSBLFST

Guest
Details From LFSB - Bale-Mulhouse
To LFST - Entzheim
Flight Number -
Tags decoded
Created
Modified
Stats Distance 57 nm / 105 km
Max Altitude 0 ft / 0 m
Waypoints 2
Social Downloads 3
Likes 0
Share VATSIM

Download

Looking for another format? Having issues loading an existing format? Contact us
Advertisement - Login to hide

Notes

Requested: LFSB LFST

Route

LFSB LFST

ID Type Via Altitude Latitude Longitude Leg Dist Tot Dist Heading (true) Name
O LFSB APT - 0 ft / 0 m 47.59581˚ 7.52481˚ - 0 nm - Bale-Mulhouse
O LFST APT - 0 ft / 0 m 48.53833˚ 7.62826˚ 56 nm 56 nm 4° / 4° Entzheim

Altitude Profile

Advertisement - Login to hide

LFSB

Details ICAO LFSB (MLH)
Name Bale-Mulhouse
Region France
Timezone Europe/Paris (UTC+2.0)
Stats Elevation 885 ft / 270 m (AMSL)
Location 47.595810° 7.524806°
Runways 2
Magnetic Variation 2.139° E

METAR

LFSB 231500Z 29009KT 250V330 9999 VCSH FEW036TCU FEW043CB SCT083 BKN120 20/13 Q1016 TEMPO 5000 TSRA

Decode

TAF

TAF LFSB 231100Z 2312/2412 36006KT 9999 FEW030CB SCT100 TEMPO 2312/2402 5000 SHRA PROB40 TEMPO 2312/2321 2000 TSRA SCT030CB PROB30 TEMPO 2313/2316 33010G20KT BECMG 2318/2321 24005KT SCT035 BKN100 PROB40 TEMPO 2403/2405 MIFG BECMG 2408/2410 FEW040CB PROB40 TEMPO 2411/2412 SHRA

Decode

Departure Runways

ID Width Length Bearing (true) Bearing (mag) Surface Threshold Offset Overrun Length
08 193 ft / 59 m 5,956 ft / 1,816 m 76.91° 74.77° Concrete 0 ft / 0 m 0 ft / 0 m
15 197 ft / 60 m 12,802 ft / 3,902 m 154.86° 152.72° Concrete 0 ft / 0 m 0 ft / 0 m
26 193 ft / 59 m 5,956 ft / 1,816 m 256.93° 254.79° Concrete 722 ft / 220 m 0 ft / 0 m
33 197 ft / 60 m 12,802 ft / 3,902 m 334.88° 332.74° Concrete 3,675 ft / 1,120 m 0 ft / 0 m

LFST

Details ICAO LFST (SXB)
Name Entzheim
Region France
Timezone Europe/Paris (UTC+2.0)
Stats Elevation 504 ft / 154 m (AMSL)
Location 48.538335° 7.628265°
Runways 1
Magnetic Variation 2.159° E

METAR

LFST 231500Z AUTO VRB02KT 9999 FEW046 SCT140 BKN210 24/14 Q1016 TEMPO TS SCT050CB

Decode

TAF

TAF LFST 231100Z 2312/2412 02006KT 9999 SCT025 BKN100 TEMPO 2312/2319 FEW050CB PROB30 TEMPO 2312/2318 TS SCT050CB

Decode

Destination Runways

ID Width Length Bearing (true) Bearing (mag) Surface Threshold Offset Overrun Length
05 148 ft / 45 m 7,899 ft / 2,408 m 48.60° 46.44° Asphalt 0 ft / 0 m 860 ft / 262 m
23 148 ft / 45 m 7,899 ft / 2,408 m 228.62° 226.46° Asphalt 0 ft / 0 m 902 ft / 275 m

Approach Navaids

Runway Type Ident Frequency Range Bearing (true) Bearing (mag) Slope Elevation
05 Localiser ENT 108.55 MHz 18 nm / 33 km 48.63° 46.47° - 499 ft / 152 m (AMSL)
05 Glidescope ENT 108.55 MHz 10 nm / 19 km 48.61° 46.45° 3.50° 561 ft / 171 m (AMSL)
05 DME ENT 108.55 MHz 18 nm / 33 km - - - 504 ft / 154 m (AMSL)
23 Localiser STZ 109.55 MHz 18 nm / 33 km 228.59° 226.43° - 515 ft / 157 m (AMSL)
23 Glidescope STZ 109.55 MHz 10 nm / 19 km 228.61° 226.45° 3.00° 542 ft / 165 m (AMSL)
23 DME STZ 109.55 MHz 18 nm / 33 km - - - 504 ft / 154 m (AMSL)

Popular Alternatives